Artois, California
Current Conditions -  °F | °C
As of 12:49 PM on Saturday 22 Nov 2014 (Local Time) from KCIC Reporting Station
Light Rain Light Rain  
Wind Chill: 54°   Ceiling: 600
Heat Index: 54°   Visibility: 3mi
Dew Point: 54°   Wind: 9mph
Humidity: 100%   Direction: 120°ESE
Pressure: 30.09"   Gusts: NA
Location:  39.62°N, 122.2°W
Report Text: KCIC 222049Z 12008KT 3SM -RABR OVC006 12/12 A3009
Loading
Personal Weather Stations






























Interactive Weather Map New forecast layout! Learn more

10-Day Weather Forecast

Advertisements
Track Severe Weather on mobile